Time;durP1;ratioP1;P1;durP2;ratioP2;P2;SDS_P1;SDS_P2;PMS_P1;PMS_P2;Temp;Humidity;BMP_temperature;BMP_pressure;BME280_temperature;BME280_humidity;BME280_pressure;Samples;Min_cycle;Max_cycle;Signal;HPM_P1;HPM_P2
2022/05/10 00:02:13;;;;;;;11.60;5.75;;;12.10;99.90;;;;;;5082412;28;20083;-73
2022/05/10 00:04:39;;;;;;;20.73;6.00;;;11.90;99.90;;;;;;5087139;28;20396;-76
2022/05/10 00:07:05;;;;;;;14.80;6.20;;;12.00;99.90;;;;;;5088779;28;20044;-74
2022/05/10 00:09:31;;;;;;;12.10;5.72;;;12.10;99.90;;;;;;5073495;28;20077;-75
2022/05/10 00:11:58;;;;;;;17.67;6.07;;;11.70;99.90;;;;;;5090958;28;20376;-75
2022/05/10 00:14:27;;;;;;;13.68;5.57;;;11.80;99.90;;;;;;5090642;28;20040;-76
2022/05/10 00:16:54;;;;;;;11.45;6.47;;;11.70;99.90;;;;;;5067109;28;20558;-75
2022/05/10 00:19:21;;;;;;;15.98;7.20;;;11.60;99.90;;;;;;5082365;28;20047;-76
2022/05/10 00:21:47;;;;;;;14.32;5.60;;;11.80;99.90;;;;;;5091507;28;20047;-75
2022/05/10 00:24:13;;;;;;;21.20;7.15;;;11.40;99.90;;;;;;5072379;28;20113;-75
2022/05/10 00:26:39;;;;;;;20.25;6.95;;;11.50;99.90;;;;;;5083726;28;20459;-75
2022/05/10 00:29:05;;;;;;;19.92;6.60;;;11.60;99.90;;;;;;5090778;28;20039;-76
2022/05/10 00:31:31;;;;;;;16.00;6.57;;;11.60;99.90;;;;;;5084632;28;20044;-75
2022/05/10 00:33:59;;;;;;;19.52;6.85;;;11.60;99.90;;;;;;5090771;28;20075;-75
2022/05/10 00:36:25;;;;;;;14.07;5.93;;;11.60;99.90;;;;;;5089799;28;20048;-75
2022/05/10 00:38:51;;;;;;;16.83;6.65;;;11.60;99.90;;;;;;5090714;28;20113;-76
2022/05/10 00:41:56;;;;;;;20.40;6.57;;;11.70;99.90;;;;;;5083167;28;20123;-76
2022/05/10 00:44:40;;;;;;;17.15;7.28;;;11.60;99.90;;;;;;5071646;28;20047;-75
2022/05/10 00:47:11;;;;;;;18.30;6.73;;;11.70;99.90;;;;;;5084237;28;20040;-76
2022/05/10 00:49:43;;;;;;;16.92;6.50;;;11.70;99.90;;;;;;5090038;28;20334;-76
2022/05/10 00:52:27;;;;;;;16.25;6.95;;;11.70;99.90;;;;;;5090236;28;20043;-75
2022/05/10 00:55:11;;;;;;;12.98;6.45;;;11.70;99.90;;;;;;5065212;28;20503;-76
2022/05/10 00:57:46;;;;;;;13.82;6.90;;;11.70;99.90;;;;;;5071187;28;20071;-76
2022/05/10 01:00:24;;;;;;;19.60;6.90;;;11.70;99.90;;;;;;5090254;28;20052;-76
2022/05/10 01:03:18;;;;;;;17.60;7.05;;;11.70;99.90;;;;;;5071970;28;20048;-76
2022/05/10 01:05:54;;;;;;;16.15;7.25;;;11.70;99.90;;;;;;4988921;28;20464;-76
2022/05/10 01:08:26;;;;;;;15.68;6.63;;;11.70;99.90;;;;;;5024310;28;20167;-75
2022/05/10 01:11:06;;;;;;;14.48;5.97;;;11.80;99.90;;;;;;5019349;28;20061;-76
2022/05/10 01:13:43;;;;;;;16.30;6.97;;;11.80;99.90;;;;;;5003412;28;20133;-76
2022/05/10 01:16:15;;;;;;;13.93;6.00;;;11.80;99.90;;;;;;5027570;28;20081;-76
2022/05/10 01:18:41;;;;;;;16.45;6.18;;;11.80;99.90;;;;;;5009751;28;20055;-77
2022/05/10 01:21:40;;;;;;;19.35;5.75;;;11.80;99.90;;;;;;5003902;28;20559;-76
2022/05/10 01:24:33;;;;;;;17.30;5.50;;;11.80;99.90;;;;;;5002951;28;20075;-76
2022/05/10 01:27:22;;;;;;;13.65;5.97;;;11.90;99.90;;;;;;5016011;28;20164;-76
2022/05/10 01:29:59;;;;;;;12.68;5.25;;;11.80;99.90;;;;;;5026495;28;20057;-76
2022/05/10 01:35:44;;;;;;;14.98;5.60;;;11.90;99.90;;;;;;5025750;28;20417;-76
2022/05/10 01:38:32;;;;;;;13.10;5.43;;;12.20;99.90;;;;;;5026931;28;20643;-75
2022/05/10 01:41:27;;;;;;;15.32;5.95;;;11.90;99.90;;;;;;5003327;28;20053;-76
2022/05/10 01:43:52;;;;;;;15.73;5.18;;;11.90;99.90;;;;;;5067912;28;20040;-75
2022/05/10 01:46:27;;;;;;;14.13;5.20;;;11.90;99.90;;;;;;5071678;28;20075;-76
2022/05/10 01:49:03;;;;;;;21.85;5.78;;;12.00;99.90;;;;;;5067598;28;20068;-74
2022/05/10 01:51:38;;;;;;;13.93;6.38;;;12.00;99.90;;;;;;5068037;28;20550;-75
2022/05/10 01:54:35;;;;;;;13.65;5.72;;;12.00;99.90;;;;;;5082013;28;20123;-77
2022/05/10 01:57:03;;;;;;;15.02;5.25;;;12.00;99.90;;;;;;5062317;28;20053;-76
2022/05/10 01:59:28;;;;;;;12.15;5.30;;;12.00;99.90;;;;;;5068493;28;20052;-76
2022/05/10 02:01:56;;;;;;;13.68;5.53;;;12.10;99.90;;;;;;5087339;28;20060;-76
2022/05/10 02:04:28;;;;;;;9.90;4.80;;;12.00;99.90;;;;;;5066725;28;20127;-75
2022/05/10 02:07:13;;;;;;;11.65;5.18;;;12.00;99.90;;;;;;5080528;28;20044;-75
2022/05/10 02:10:02;;;;;;;10.23;5.28;;;12.00;99.90;;;;;;5083232;28;20172;-76
2022/05/10 02:12:42;;;;;;;11.50;5.93;;;12.00;99.90;;;;;;5063745;28;20056;-76
2022/05/10 02:15:26;;;;;;;10.38;4.68;;;11.90;99.90;;;;;;5061092;28;20115;-74
2022/05/10 02:18:08;;;;;;;13.13;5.10;;;11.90;99.90;;;;;;5054042;28;20501;-75
2022/05/10 02:20:58;;;;;;;14.77;5.47;;;11.90;99.90;;;;;;5088434;28;20463;-76
2022/05/10 02:23:55;;;;;;;17.88;5.70;;;11.90;99.90;;;;;;5057025;28;20048;-74
2022/05/10 02:26:33;;;;;;;16.10;5.55;;;11.90;99.90;;;;;;5003545;28;20072;-76
2022/05/10 02:29:14;;;;;;;14.32;5.80;;;11.90;99.90;;;;;;5010484;28;20129;-75
2022/05/10 02:34:39;;;;;;;12.18;5.28;;;12.00;99.90;;;;;;5004670;28;20058;-75
2022/05/10 02:37:05;;;;;;;12.82;5.28;;;12.00;99.90;;;;;;5010519;28;20057;-74
2022/05/10 02:39:31;;;;;;;12.05;5.18;;;12.10;99.90;;;;;;5001679;28;20052;-75
2022/05/10 02:41:59;;;;;;;11.27;4.85;;;12.30;99.90;;;;;;5011642;28;20108;-75
2022/05/10 02:44:25;;;;;;;15.20;5.75;;;12.30;99.90;;;;;;5011329;28;20061;-75
2022/05/10 02:46:51;;;;;;;15.95;5.50;;;12.10;99.90;;;;;;4991527;28;20057;-75
2022/05/10 02:49:18;;;;;;;12.93;5.57;;;12.10;99.90;;;;;;5004160;28;20050;-75
2022/05/10 02:51:44;;;;;;;11.38;5.30;;;12.10;99.90;;;;;;4993745;28;20053;-76
2022/05/10 02:54:10;;;;;;;13.13;6.18;;;12.10;99.90;;;;;;5010620;28;20050;-74
2022/05/10 02:56:36;;;;;;;16.73;5.97;;;12.20;99.90;;;;;;5010443;28;20105;-75
2022/05/10 02:59:15;;;;;;;17.48;6.55;;;12.10;99.90;;;;;;5006181;28;20516;-75
2022/05/10 03:02:12;;;;;;;13.23;5.57;;;12.10;99.90;;;;;;5010183;28;20488;-76
2022/05/10 03:04:49;;;;;;;11.02;5.13;;;12.10;99.90;;;;;;5076148;28;20411;-75
2022/05/10 03:07:15;;;;;;;12.90;5.47;;;12.10;99.90;;;;;;5081241;28;20048;-72
2022/05/10 03:09:41;;;;;;;16.92;5.60;;;12.20;99.90;;;;;;5066126;28;20396;-75
2022/05/10 03:12:07;;;;;;;9.27;5.03;;;12.20;99.90;;;;;;5091259;28;20075;-76
2022/05/10 03:14:33;;;;;;;11.35;5.75;;;12.20;99.90;;;;;;5092762;28;20131;-76
2022/05/10 03:16:59;;;;;;;14.95;5.88;;;12.20;99.90;;;;;;5068856;28;20598;-76
2022/05/10 03:19:24;;;;;;;15.95;6.55;;;12.20;99.90;;;;;;5071295;28;20434;-76
2022/05/10 03:21:50;;;;;;;11.77;5.68;;;12.20;99.90;;;;;;5071538;28;20495;-76
2022/05/10 03:24:16;;;;;;;11.07;5.47;;;12.40;99.90;;;;;;5070799;28;20407;-76
2022/05/10 03:26:46;;;;;;;15.63;6.10;;;12.20;99.90;;;;;;5088988;28;20067;-76
2022/05/10 03:29:12;;;;;;;13.77;6.07;;;12.20;99.90;;;;;;5088861;28;20505;-76
2022/05/10 03:31:38;;;;;;;13.98;7.05;;;12.30;99.90;;;;;;5066235;28;20127;-76
2022/05/10 03:36:48;;;;;;;12.43;5.97;;;12.20;99.90;;;;;;5091675;28;20505;-76
2022/05/10 03:39:13;;;;;;;17.25;5.88;;;12.30;99.90;;;;;;5085960;28;20298;-76
2022/05/10 03:41:39;;;;;;;14.07;6.57;;;12.30;99.90;;;;;;5045527;28;20044;-76
2022/05/10 03:44:05;;;;;;;13.25;6.03;;;12.50;99.90;;;;;;5091004;28;20085;-75
2022/05/10 03:46:31;;;;;;;17.95;6.50;;;12.40;99.90;;;;;;5091707;28;20458;-75
2022/05/10 03:48:56;;;;;;;13.70;6.38;;;12.30;99.90;;;;;;5090650;28;20047;-76
2022/05/10 03:51:23;;;;;;;17.45;7.43;;;12.40;99.90;;;;;;5091006;28;20047;-77
2022/05/10 03:53:48;;;;;;;18.77;6.65;;;12.40;99.90;;;;;;5091100;28;20469;-73
2022/05/10 03:56:14;;;;;;;11.95;6.82;;;12.40;99.90;;;;;;5091446;28;20056;-75
2022/05/10 03:58:40;;;;;;;13.10;6.63;;;12.40;99.90;;;;;;5084808;28;20098;-75
2022/05/10 04:01:07;;;;;;;18.52;7.72;;;12.40;99.90;;;;;;5060075;28;20044;-76
2022/05/10 04:03:33;;;;;;;17.30;6.80;;;12.50;99.90;;;;;;5066383;28;20048;-76
2022/05/10 04:05:59;;;;;;;16.33;6.72;;;12.50;99.90;;;;;;5072699;28;20479;-76
2022/05/10 04:08:25;;;;;;;14.45;6.57;;;12.70;99.90;;;;;;5068195;28;20055;-76
2022/05/10 04:10:50;;;;;;;17.50;7.35;;;12.50;99.90;;;;;;5063868;28;20509;-75
2022/05/10 04:13:16;;;;;;;14.65;6.78;;;12.60;99.90;;;;;;5084863;28;20078;-76
2022/05/10 04:15:42;;;;;;;14.20;7.03;;;12.50;99.90;;;;;;5070082;28;20545;-77
2022/05/10 04:18:08;;;;;;;15.82;7.22;;;12.60;99.90;;;;;;5089161;28;20166;-76
2022/05/10 04:20:33;;;;;;;18.38;7.13;;;12.60;99.90;;;;;;5073453;28;20028;-77
2022/05/10 04:23:00;;;;;;;19.23;8.15;;;12.70;99.90;;;;;;5077148;28;20040;-77
2022/05/10 04:25:25;;;;;;;17.88;7.07;;;12.70;99.90;;;;;;5090519;28;20110;-76
2022/05/10 04:27:55;;;;;;;13.02;6.80;;;12.80;99.90;;;;;;5090722;28;20107;-76
2022/05/10 04:30:22;;;;;;;16.45;7.45;;;12.80;99.90;;;;;;5089227;28;20048;-76
2022/05/10 04:32:49;;;;;;;18.98;8.32;;;12.80;99.90;;;;;;5085375;28;20040;-76
2022/05/10 04:35:14;;;;;;;14.07;8.13;;;12.90;99.90;;;;;;5079601;28;20048;-76
2022/05/10 04:37:40;;;;;;;14.52;7.70;;;12.90;99.90;;;;;;5090930;28;20050;-74
2022/05/10 04:42:52;;;;;;;15.60;7.45;;;13.00;99.90;;;;;;5066130;28;20091;-76
2022/05/10 04:45:18;;;;;;;11.55;7.15;;;13.10;99.90;;;;;;5067880;28;20052;-76
2022/05/10 04:47:44;;;;;;;17.17;7.53;;;13.10;99.90;;;;;;5086318;28;20032;-78
2022/05/10 04:50:10;;;;;;;15.25;7.72;;;13.10;99.90;;;;;;5090439;28;20113;-77
2022/05/10 04:52:37;;;;;;;16.52;7.20;;;13.20;99.90;;;;;;5085076;28;20032;-77
2022/05/10 04:55:04;;;;;;;17.40;7.75;;;13.20;99.90;;;;;;5089007;28;20406;-77
2022/05/10 04:57:30;;;;;;;15.05;7.97;;;13.20;99.90;;;;;;5090345;28;20051;-76
2022/05/10 04:59:55;;;;;;;14.73;7.57;;;13.30;99.90;;;;;;5083048;28;20051;-77
2022/05/10 05:02:21;;;;;;;14.25;7.78;;;13.30;99.90;;;;;;5071853;28;20052;-77
2022/05/10 05:04:46;;;;;;;18.33;7.43;;;13.40;99.90;;;;;;5068905;28;20499;-76
2022/05/10 05:07:12;;;;;;;16.33;6.93;;;13.60;99.90;;;;;;5064816;28;20523;-77
2022/05/10 05:09:38;;;;;;;19.60;8.40;;;13.50;99.90;;;;;;5080335;28;20040;-74
2022/05/10 05:12:06;;;;;;;18.35;7.63;;;13.60;99.90;;;;;;5048656;28;20056;-76
2022/05/10 05:14:32;;;;;;;19.73;8.05;;;13.50;99.90;;;;;;5070255;28;20538;-76
2022/05/10 05:16:59;;;;;;;16.35;8.13;;;13.60;99.90;;;;;;5068324;28;20044;-75
2022/05/10 05:19:25;;;;;;;18.50;7.63;;;13.60;99.90;;;;;;5072556;28;20051;-77
2022/05/10 05:21:50;;;;;;;21.80;8.38;;;13.70;99.90;;;;;;5073124;28;20047;-77
2022/05/10 05:24:16;;;;;;;15.43;7.85;;;13.80;99.90;;;;;;5090766;28;20055;-78
2022/05/10 05:26:41;;;;;;;14.50;7.88;;;13.90;99.90;;;;;;5089521;28;20052;-76
2022/05/10 05:29:07;;;;;;;21.05;7.47;;;13.90;99.90;;;;;;5084371;28;20066;-74
2022/05/10 05:31:33;;;;;;;18.38;8.07;;;14.00;99.90;;;;;;5077758;28;20078;-75
2022/05/10 05:33:59;;;;;;;13.98;8.00;;;14.10;99.90;;;;;;5070886;28;20083;-76
2022/05/10 05:36:24;;;;;;;17.10;7.95;;;14.20;99.90;;;;;;5089821;28;20050;-75
2022/05/10 05:38:50;;;;;;;13.48;7.40;;;14.20;99.90;;;;;;5082343;28;20371;-76
2022/05/10 05:41:18;;;;;;;14.82;7.00;;;14.30;99.90;;;;;;5087922;28;20094;-76
2022/05/10 05:43:44;;;;;;;15.18;8.07;;;14.40;99.90;;;;;;5089327;28;20469;-76
2022/05/10 05:46:09;;;;;;;20.92;8.35;;;14.50;99.90;;;;;;5078735;28;20796;-75
2022/05/10 05:48:35;;;;;;;16.17;8.70;;;14.50;99.90;;;;;;5083373;28;20098;-75
2022/05/10 05:51:01;;;;;;;16.92;7.65;;;14.60;99.90;;;;;;5084497;28;20528;-77
2022/05/10 05:53:26;;;;;;;15.32;8.35;;;14.70;99.90;;;;;;5089178;28;20032;-76
2022/05/10 05:55:53;;;;;;;12.77;8.02;;;14.70;99.90;;;;;;5088907;28;20376;-74
2022/05/10 05:58:19;;;;;;;15.43;7.43;;;14.80;99.90;;;;;;5088707;28;20051;-75
2022/05/10 06:00:45;;;;;;;13.75;7.53;;;14.80;99.90;;;;;;5085107;28;20115;-75
2022/05/10 06:03:11;;;;;;;17.98;7.50;;;15.00;99.90;;;;;;5088602;28;20044;-75
2022/05/10 06:05:37;;;;;;;16.08;7.30;;;15.00;99.90;;;;;;5088476;28;20048;-72
2022/05/10 06:08:06;;;;;;;15.07;7.50;;;15.10;99.90;;;;;;5071372;28;20070;-75
2022/05/10 06:10:31;;;;;;;13.13;6.90;;;15.20;99.90;;;;;;5077845;28;20454;-76
2022/05/10 06:13:01;;;;;;;9.88;6.18;;;15.30;99.90;;;;;;5070657;28;20131;-74
2022/05/10 06:15:27;;;;;;;11.38;6.18;;;15.50;99.90;;;;;;5066508;28;20049;-76
2022/05/10 06:17:53;;;;;;;11.32;6.05;;;15.60;99.90;;;;;;5078116;28;20036;-73
2022/05/10 06:20:22;;;;;;;12.20;6.75;;;15.70;99.90;;;;;;5071044;28;20212;-76
2022/05/10 06:22:48;;;;;;;11.88;6.63;;;15.80;99.90;;;;;;5071110;28;20117;-74
2022/05/10 06:25:17;;;;;;;12.40;6.78;;;16.00;99.90;;;;;;5069658;28;20048;-74
2022/05/10 06:27:44;;;;;;;14.30;6.55;;;16.10;99.90;;;;;;5063968;28;20059;-74
2022/05/10 06:30:12;;;;;;;14.15;6.55;;;16.20;99.90;;;;;;5087655;28;20048;-75
2022/05/10 06:32:38;;;;;;;12.23;5.90;;;16.40;99.90;;;;;;5082097;28;20495;-76
2022/05/10 06:35:04;;;;;;;13.82;6.82;;;16.50;99.90;;;;;;5070832;28;20047;-77
2022/05/10 06:40:17;;;;;;;15.32;6.60;;;16.70;99.90;;;;;;5070308;28;20041;-76
2022/05/10 06:42:42;;;;;;;14.55;6.18;;;17.00;99.90;;;;;;5084492;28;20036;-74
2022/05/10 06:45:10;;;;;;;13.20;6.00;;;17.10;99.90;;;;;;5068881;28;20043;-75
2022/05/10 06:47:38;;;;;;;11.45;6.05;;;17.20;99.90;;;;;;5088854;28;20048;-76
2022/05/10 06:50:05;;;;;;;11.95;5.85;;;17.30;99.90;;;;;;5067955;28;20041;-77
2022/05/10 06:52:31;;;;;;;13.68;6.30;;;17.40;99.90;;;;;;5079100;28;20500;-74
2022/05/10 06:54:57;;;;;;;12.05;5.10;;;17.50;99.90;;;;;;5088522;28;20063;-72
2022/05/10 06:57:23;;;;;;;8.20;5.18;;;17.60;99.90;;;;;;5088572;28;20059;-76
2022/05/10 06:59:48;;;;;;;11.38;5.13;;;17.70;99.90;;;;;;5087613;28;20484;-73
2022/05/10 07:02:14;;;;;;;12.65;5.78;;;17.90;99.90;;;;;;5070395;28;20515;-73
2022/05/10 07:04:40;;;;;;;11.95;5.25;;;18.00;99.90;;;;;;5067621;28;20044;-76
2022/05/10 07:07:05;;;;;;;10.20;5.18;;;18.20;99.90;;;;;;5062769;28;20146;-73
2022/05/10 07:09:31;;;;;;;14.93;5.05;;;18.20;99.90;;;;;;5091974;28;20050;-77
2022/05/10 07:11:57;;;;;;;8.13;4.30;;;18.40;99.90;;;;;;5092114;28;20036;-74
2022/05/10 07:14:23;;;;;;;9.38;4.15;;;18.40;99.90;;;;;;5088136;28;20051;-77
2022/05/10 07:16:48;;;;;;;8.93;4.68;;;18.60;99.90;;;;;;5080222;28;20040;-76
2022/05/10 07:19:14;;;;;;;13.48;4.50;;;18.70;99.90;;;;;;5091804;28;20082;-74
2022/05/10 07:21:39;;;;;;;7.03;4.10;;;18.80;99.90;;;;;;5061864;28;20042;-77
2022/05/10 07:24:05;;;;;;;13.07;4.55;;;19.00;99.90;;;;;;5083220;28;20388;-74
2022/05/10 07:26:31;;;;;;;9.75;4.78;;;19.10;99.90;;;;;;5084924;28;20087;-77
2022/05/10 07:28:57;;;;;;;8.65;4.28;;;19.20;99.90;;;;;;5080817;28;20119;-77
2022/05/10 07:31:22;;;;;;;10.68;4.03;;;19.30;99.90;;;;;;5091921;28;20095;-77
2022/05/10 07:33:48;;;;;;;21.67;4.78;;;19.40;99.90;;;;;;5056448;28;20150;-78
2022/05/10 07:36:28;;;;;;;12.60;4.05;;;19.60;99.90;;;;;;5092431;28;20040;-73
2022/05/10 07:38:54;;;;;;;10.05;4.45;;;19.70;99.90;;;;;;5091806;28;20446;-75
2022/05/10 07:41:22;;;;;;;11.65;4.25;;;19.70;99.90;;;;;;5073862;28;20130;-76
2022/05/10 07:43:50;;;;;;;15.13;4.30;;;19.80;99.90;;;;;;5073392;28;20048;-73
2022/05/10 07:46:17;;;;;;;10.40;4.65;;;20.50;99.90;;;;;;5064914;28;20075;-75
2022/05/10 07:48:43;;;;;;;10.75;4.45;;;19.90;99.90;;;;;;5092340;28;20117;-76
2022/05/10 07:51:09;;;;;;;12.18;4.32;;;20.00;99.90;;;;;;5091387;28;20036;-75
2022/05/10 07:53:36;;;;;;;10.98;4.93;;;20.10;99.90;;;;;;5070310;28;20097;-75
2022/05/10 07:56:02;;;;;;;13.98;4.15;;;20.20;99.90;;;;;;5089208;28;20122;-74
2022/05/10 07:58:28;;;;;;;15.15;4.35;;;20.20;99.90;;;;;;5080144;28;20052;-77
2022/05/10 08:00:55;;;;;;;13.73;4.50;;;20.30;99.90;;;;;;5079997;28;20177;-75
2022/05/10 08:03:24;;;;;;;13.10;4.60;;;20.30;99.90;;;;;;5090957;28;20044;-74
2022/05/10 08:05:52;;;;;;;13.00;4.13;;;20.50;99.90;;;;;;5091381;28;20382;-77
2022/05/10 08:08:18;;;;;;;7.90;4.18;;;20.50;99.90;;;;;;5049023;28;20074;-73
2022/05/10 08:10:45;;;;;;;8.10;3.80;;;20.50;99.90;;;;;;5091963;28;20070;-75
2022/05/10 08:13:16;;;;;;;9.00;3.42;;;20.60;99.90;;;;;;5091766;28;20056;-74
2022/05/10 08:15:41;;;;;;;14.88;3.83;;;20.70;99.90;;;;;;5091739;28;20415;-74
2022/05/10 08:18:08;;;;;;;12.43;4.93;;;20.60;99.90;;;;;;5092350;28;20044;-71
2022/05/10 08:20:34;;;;;;;10.88;3.63;;;20.60;99.90;;;;;;5092073;28;20051;-76
2022/05/10 08:23:00;;;;;;;12.90;3.88;;;20.60;99.90;;;;;;5091366;28;20047;-77
2022/05/10 08:25:26;;;;;;;12.55;3.95;;;20.70;99.90;;;;;;5080423;28;20044;-72
2022/05/10 08:27:52;;;;;;;16.05;4.90;;;20.70;99.90;;;;;;5087624;28;20036;-75
2022/05/10 08:30:18;;;;;;;10.38;3.10;;;20.80;99.90;;;;;;5090640;28;20055;-74
2022/05/10 08:32:44;;;;;;;8.00;3.72;;;20.90;99.90;;;;;;5090745;28;20055;-72
2022/05/10 08:35:10;;;;;;;16.02;3.28;;;21.00;99.90;;;;;;5091000;28;20060;-74
2022/05/10 08:37:37;;;;;;;13.95;3.75;;;21.10;99.90;;;;;;5087151;28;20479;-75
2022/05/10 08:40:05;;;;;;;11.63;3.35;;;21.10;99.90;;;;;;5076863;28;20040;-78
2022/05/10 08:42:33;;;;;;;10.02;3.40;;;21.20;99.90;;;;;;5084054;28;20472;-73
2022/05/10 08:45:07;;;;;;;11.27;3.45;;;21.30;99.90;;;;;;5091365;28;20127;-77
2022/05/10 08:47:35;;;;;;;9.52;2.78;;;21.30;99.90;;;;;;5091734;28;20044;-76
2022/05/10 08:50:06;;;;;;;8.02;3.08;;;21.30;99.90;;;;;;5091507;28;20048;-76
2022/05/10 08:52:40;;;;;;;10.55;2.78;;;21.40;99.90;;;;;;5073838;28;20124;-77
2022/05/10 08:55:08;;;;;;;14.25;2.92;;;21.40;99.90;;;;;;5089449;28;20565;-77
2022/05/10 08:57:37;;;;;;;10.45;2.72;;;21.50;99.90;;;;;;5091770;28;20513;-78
2022/05/10 09:00:08;;;;;;;9.18;3.22;;;21.50;99.90;;;;;;5091615;28;20123;-77
2022/05/10 09:02:48;;;;;;;9.10;2.65;;;21.50;99.90;;;;;;5091556;28;20043;-76
2022/05/10 09:05:16;;;;;;;7.07;2.72;;;21.50;99.90;;;;;;5073037;28;20051;-77
2022/05/10 09:08:01;;;;;;;9.30;2.75;;;21.50;99.90;;;;;;5091287;28;20048;-77
2022/05/10 09:10:35;;;;;;;12.10;2.67;;;21.60;99.90;;;;;;5091556;28;20053;-76
2022/05/10 09:13:04;;;;;;;13.00;3.28;;;21.50;99.90;;;;;;5073043;28;20495;-75
2022/05/10 09:15:40;;;;;;;5.93;2.58;;;21.50;99.90;;;;;;5091388;28;20403;-77
2022/05/10 09:18:21;;;;;;;9.50;3.13;;;21.60;99.90;;;;;;5091370;28;20457;-77
2022/05/10 09:21:01;;;;;;;11.95;2.90;;;21.60;99.90;;;;;;5072753;28;20052;-75
2022/05/10 09:23:35;;;;;;;7.80;3.10;;;21.80;99.80;;;;;;5091079;28;20093;-77
2022/05/10 09:26:03;;;;;;;7.80;3.17;;;21.90;99.90;;;;;;5091191;28;20169;-75
2022/05/10 09:28:32;;;;;;;10.45;3.80;;;22.00;99.80;;;;;;5091107;28;20044;-75
2022/05/10 09:37:21;;;;;;;19.35;3.35;;;22.00;99.00;;;;;;5090689;28;20039;-72
2022/05/10 09:39:50;;;;;;;11.07;3.38;;;22.10;99.90;;;;;;5090803;28;20052;-76
2022/05/10 09:42:25;;;;;;;8.43;3.33;;;22.20;99.90;;;;;;5090909;28;20052;-73
2022/05/10 09:45:00;;;;;;;12.65;3.92;;;22.40;99.60;;;;;;5090641;28;20526;-73
2022/05/10 09:47:26;;;;;;;6.45;3.47;;;22.40;99.40;;;;;;5090600;28;20051;-76
2022/05/10 09:49:51;;;;;;;13.10;3.75;;;22.40;99.40;;;;;;5072546;28;20085;-76
2022/05/10 09:52:23;;;;;;;9.38;4.00;;;22.40;99.70;;;;;;5090474;28;20044;-75
2022/05/10 09:54:52;;;;;;;6.68;3.72;;;22.40;99.90;;;;;;5076672;28;20389;-75
2022/05/10 09:57:35;;;;;;;15.27;4.68;;;22.30;99.60;;;;;;5074160;28;20499;-73
2022/05/10 10:00:03;;;;;;;22.85;5.28;;;22.20;99.50;;;;;;5090634;28;20051;-74
2022/05/10 10:02:33;;;;;;;20.90;4.38;;;22.20;99.50;;;;;;5090100;28;20487;-72
2022/05/10 10:04:59;;;;;;;15.07;5.20;;;22.20;99.50;;;;;;5090138;28;20132;-73
2022/05/10 10:07:28;;;;;;;18.13;5.32;;;22.30;99.70;;;;;;5090682;28;20123;-76
2022/05/10 10:10:14;;;;;;;12.10;4.75;;;22.40;99.40;;;;;;5090403;28;20052;-74
2022/05/10 10:12:42;;;;;;;17.08;4.60;;;22.40;99.90;;;;;;5072138;28;20078;-76
2022/05/10 10:15:43;;;;;;;13.82;5.15;;;22.40;99.50;;;;;;5090462;28;20558;-73
2022/05/10 10:18:12;;;;;;;13.38;4.93;;;22.50;99.90;;;;;;5071811;28;20048;-74
2022/05/10 10:20:57;;;;;;;17.65;5.47;;;22.70;99.90;;;;;;5090522;28;20066;-73
2022/05/10 10:23:31;;;;;;;11.88;5.32;;;22.80;99.90;;;;;;5090369;28;20455;-72
2022/05/10 10:26:03;;;;;;;;;;;22.90;99.80;;;;;;5090566;28;20494;-72
2022/05/10 10:28:38;;;;;;;10.32;5.28;;;22.90;99.40;;;;;;5090428;28;19931;-75
2022/05/10 10:31:17;;;;;;;;;;;22.90;99.10;;;;;;5090944;28;20477;-71
2022/05/10 10:33:49;;;;;;;9.85;5.30;;;22.90;99.90;;;;;;5089854;28;19920;-72
2022/05/10 10:36:25;;;;;;;13.48;5.47;;;23.00;99.90;;;;;;5072301;28;20151;-75
2022/05/10 10:39:13;;;;;;;12.35;5.50;;;23.10;99.70;;;;;;5071947;28;20054;-74
2022/05/10 10:42:08;;;;;;;13.13;5.43;;;23.10;99.80;;;;;;5070368;28;20044;-74
2022/05/10 10:44:43;;;;;;;16.30;5.43;;;23.10;99.90;;;;;;5073958;28;20480;-76
2022/05/10 10:47:22;;;;;;;8.98;5.03;;;23.10;99.80;;;;;;5092894;28;20049;-71
2022/05/10 10:50:06;;;;;;;16.65;4.68;;;23.00;99.90;;;;;;5093995;28;20044;-77
2022/05/10 10:52:31;;;;;;;10.70;5.05;;;22.80;99.20;;;;;;5075233;28;20059;-70
2022/05/10 10:54:58;;;;;;;13.40;4.18;;;22.70;99.20;;;;;;5072636;28;20056;-73
2022/05/10 10:57:44;;;;;;;9.48;4.13;;;22.60;99.20;;;;;;5074705;28;20089;-73
2022/05/10 11:00:24;;;;;;;10.23;4.00;;;22.40;99.00;;;;;;5067742;28;20119;-73
2022/05/10 11:03:07;;;;;;;12.25;2.97;;;22.30;98.60;;;;;;5074383;28;20127;-76
2022/05/10 11:05:51;;;;;;;9.27;3.17;;;22.20;97.90;;;;;;5092972;28;20040;-74
2022/05/10 11:08:56;;;;;;;8.73;2.95;;;22.10;97.90;;;;;;5086525;28;20055;-70
2022/05/10 11:11:38;;;;;;;9.05;2.80;;;22.00;98.00;;;;;;5073354;28;20511;-74
2022/05/10 11:14:11;;;;;;;8.10;2.92;;;22.00;97.50;;;;;;5092762;28;20052;-76
2022/05/10 11:16:45;;;;;;;5.88;2.97;;;21.90;97.80;;;;;;5093298;28;20048;-73
2022/05/10 11:19:24;;;;;;;10.23;3.05;;;21.90;98.10;;;;;;5092547;28;20071;-70
2022/05/10 11:22:13;;;;;;;10.00;3.28;;;22.00;98.10;;;;;;5073803;28;20494;-74
2022/05/10 11:25:06;;;;;;;14.95;3.90;;;22.00;98.20;;;;;;5092531;28;20044;-74
2022/05/10 11:27:53;;;;;;;12.98;4.13;;;22.00;98.30;;;;;;5087357;28;20055;-74
2022/05/10 11:30:36;;;;;;;8.00;3.92;;;22.10;98.30;;;;;;5066740;28;20085;-75
2022/05/10 11:33:39;;;;;;;11.63;4.50;;;22.00;98.30;;;;;;5092738;28;20081;-75
2022/05/10 11:36:33;;;;;;;9.20;4.15;;;22.10;98.80;;;;;;5092803;28;20040;-76
2022/05/10 11:39:13;;;;;;;13.68;4.93;;;22.10;98.70;;;;;;5092538;28;20043;-71
2022/05/10 11:41:57;;;;;;;10.75;5.10;;;22.10;98.70;;;;;;5086809;28;20074;-75
2022/05/10 11:44:43;;;;;;;25.58;5.47;;;22.00;99.00;;;;;;5092392;28;20040;-75
2022/05/10 11:47:30;;;;;;;10.20;5.15;;;22.10;99.90;;;;;;5074204;28;20043;-74
2022/05/10 11:50:29;;;;;;;9.60;5.38;;;22.20;99.90;;;;;;5091856;28;20047;-75
2022/05/10 11:53:25;;;;;;;13.98;5.90;;;22.40;99.90;;;;;;5093016;28;20044;-74
2022/05/10 11:55:56;;;;;;;21.98;6.07;;;22.50;99.70;;;;;;5090443;28;20130;-74
2022/05/10 11:58:24;;;;;;;21.67;6.43;;;22.60;99.70;;;;;;5073880;28;20047;-70
2022/05/10 12:00:52;;;;;;;12.07;5.80;;;22.70;99.70;;;;;;5092427;28;20039;-71
2022/05/10 12:03:36;;;;;;;22.83;7.50;;;22.70;99.90;;;;;;5092827;28;20044;-71
2022/05/10 12:06:21;;;;;;;15.27;7.63;;;22.70;99.90;;;;;;5071340;28;20087;-69
2022/05/10 12:08:46;;;;;;;11.73;6.43;;;22.60;99.90;;;;;;5071144;28;20568;-72
2022/05/10 12:11:30;;;;;;;14.75;6.30;;;22.60;99.90;;;;;;5070802;28;20140;-71
2022/05/10 12:22:58;;;;;;;10.13;4.07;;;22.30;99.90;;;;;;5091543;28;20100;-77
2022/05/10 12:25:52;;;;;;;16.38;4.40;;;22.20;99.90;;;;;;5070126;28;20050;-75
2022/05/10 12:28:47;;;;;;;14.30;4.65;;;22.10;99.90;;;;;;5069094;28;20084;-74
2022/05/10 12:31:34;;;;;;;14.82;4.93;;;22.10;99.90;;;;;;5089235;28;20046;-71
2022/05/10 12:34:09;;;;;;;13.70;4.30;;;22.10;99.90;;;;;;5089795;28;20123;-71
2022/05/10 12:36:38;;;;;;;13.52;4.18;;;22.10;99.90;;;;;;5091113;28;20182;-70
2022/05/10 12:39:24;;;;;;;10.68;3.72;;;22.10;99.90;;;;;;5090339;28;20477;-69
2022/05/10 12:41:58;;;;;;;13.02;3.80;;;22.10;99.90;;;;;;5090539;28;20044;-73
2022/05/10 12:44:50;;;;;;;6.93;2.65;;;22.10;99.90;;;;;;5090644;28;20123;-76
2022/05/10 12:47:23;;;;;;;9.90;2.58;;;21.90;99.90;;;;;;5089962;28;20507;-78
2022/05/10 12:50:02;;;;;;;5.77;2.03;;;21.80;99.90;;;;;;5069528;28;20044;-75
2022/05/10 12:52:43;;;;;;;7.97;2.38;;;21.60;99.10;;;;;;5082412;28;20081;-76
2022/05/10 12:55:25;;;;;;;9.93;3.00;;;21.50;98.30;;;;;;5069184;28;20064;-80
2022/05/10 12:58:08;;;;;;;12.45;2.35;;;21.40;99.20;;;;;;5090241;28;20391;-75
2022/05/10 13:00:48;;;;;;;14.25;3.05;;;21.40;98.70;;;;;;5086521;28;20040;-71
2022/05/10 13:03:22;;;;;;;10.30;2.67;;;21.50;98.80;;;;;;5073107;28;20488;-75
2022/05/10 13:06:05;;;;;;;9.40;2.67;;;21.40;98.50;;;;;;5085560;28;20091;-76
2022/05/10 13:09:02;;;;;;;9.57;2.35;;;21.30;98.00;;;;;;5072625;28;20048;-73
2022/05/10 13:11:46;;;;;;;23.23;2.50;;;21.20;98.50;;;;;;5078108;28;20047;-73
2022/05/10 13:14:13;;;;;;;11.65;2.28;;;21.20;98.30;;;;;;5072248;28;20109;-75
2022/05/10 13:16:48;;;;;;;11.43;2.30;;;21.10;97.70;;;;;;5053323;28;20079;-75
2022/05/10 13:19:16;;;;;;;9.90;2.22;;;21.00;98.00;;;;;;5071053;28;20527;-73
2022/05/10 13:21:42;;;;;;;7.15;2.10;;;21.10;98.60;;;;;;5070365;28;20040;-69
2022/05/10 13:24:12;;;;;;;6.70;1.67;;;21.00;98.50;;;;;;5052952;28;20044;-70
2022/05/10 13:26:54;;;;;;;13.80;1.88;;;21.00;98.20;;;;;;5070826;28;20120;-67
2022/05/10 13:29:33;;;;;;;6.00;1.38;;;20.90;97.50;;;;;;5036396;28;20428;-72
2022/05/10 13:31:59;;;;;;;10.90;1.88;;;20.80;96.20;;;;;;5070786;28;20127;-69
2022/05/10 13:34:25;;;;;;;8.48;1.20;;;20.80;96.30;;;;;;5070856;28;20148;-69